Time,TemperatureF,DewpointF,PressureIn,WindDirection,WindDirectionDegrees,WindSpeedMPH,WindSpeedGustMPH,Humidity,HourlyPrecipIn,Conditions,Clouds,dailyrainin,SoftwareType,DateUTC
2013-02-03 00:04:00,22.0,-99.9,-100.00,NE,50,7.0,15.0,-999,-99.99,,,-99.99,,2013-02-03 05:04:00,
2013-02-03 00:12:00,22.0,-99.9,-100.00,NE,50,7.0,15.0,-999,-99.99,,,-99.99,,2013-02-03 05:12:00,
2013-02-03 00:23:00,22.0,-99.9,-100.00,ENE,70,7.0,10.0,-999,-99.99,,,-99.99,,2013-02-03 05:23:00,
2013-02-03 00:32:00,22.0,-99.9,-100.00,ENE,70,7.0,10.0,-999,-99.99,,,-99.99,,2013-02-03 05:32:00,
2013-02-03 00:42:00,22.0,-99.9,-100.00,ENE,60,11.0,14.0,-999,-99.99,,,-99.99,,2013-02-03 05:42:00,
2013-02-03 00:53:00,22.0,-99.9,-100.00,ENE,60,11.0,14.0,-999,-99.99,,,-99.99,,2013-02-03 05:53:00,
2013-02-03 01:02:00,22.0,-99.9,-100.00,ENE,60,11.0,14.0,-999,-99.99,,,-99.99,,2013-02-03 06:02:00,
2013-02-03 01:11:00,22.0,-99.9,-100.00,ENE,60,11.0,14.0,-999,-99.99,,,-99.99,,2013-02-03 06:11:00,
2013-02-03 01:22:00,22.0,-99.9,-100.00,ENE,60,11.0,13.0,-999,-99.99,,,-99.99,,2013-02-03 06:22:00,
2013-02-03 01:32:00,22.0,-99.9,-100.00,ENE,60,11.0,13.0,-999,-99.99,,,-99.99,,2013-02-03 06:32:00,
2013-02-03 01:42:00,22.0,-99.9,-100.00,ENE,60,11.0,13.0,-999,-99.99,,,-99.99,,2013-02-03 06:42:00,
2013-02-03 01:52:00,22.0,-99.9,-100.00,ENE,60,11.0,13.0,-999,-99.99,,,-99.99,,2013-02-03 06:52:00,
2013-02-03 02:02:00,22.0,-99.9,-100.00,NE,50,9.0,15.0,-999,-99.99,,,-99.99,,2013-02-03 07:02:00,
2013-02-03 02:11:00,22.0,-99.9,-100.00,NE,50,9.0,15.0,-999,-99.99,,,-99.99,,2013-02-03 07:11:00,
2013-02-03 02:22:00,22.0,-99.9,-100.00,ENE,60,8.0,9.0,-999,-99.99,,,-99.99,,2013-02-03 07:22:00,
2013-02-03 02:32:00,22.0,-99.9,-100.00,ENE,60,8.0,9.0,-999,-99.99,,,-99.99,,2013-02-03 07:32:00,
2013-02-03 02:42:00,22.0,-99.9,-100.00,ENE,60,8.0,9.0,-999,-99.99,,,-99.99,,2013-02-03 07:42:00,
2013-02-03 02:53:00,22.0,-99.9,-100.00,ENE,70,9.0,13.0,-999,-99.99,,,-99.99,,2013-02-03 07:53:00,
2013-02-03 03:00:00,20.0,-99.9,-100.00,SSE,150,6.0,8.0,-999,-99.99,,,-99.99,,2013-02-03 08:00:00,
2013-02-03 03:02:00,22.0,-99.9,-100.00,ENE,70,9.0,13.0,-999,-99.99,,,-99.99,,2013-02-03 08:02:00,
2013-02-03 03:11:00,22.0,-99.9,-100.00,ENE,70,9.0,13.0,-999,-99.99,,,-99.99,,2013-02-03 08:11:00,
2013-02-03 03:22:00,20.0,-99.9,-100.00,SSE,150,6.0,8.0,-999,-99.99,,,-99.99,,2013-02-03 08:22:00,
2013-02-03 03:32:00,20.0,-99.9,-100.00,SSE,150,6.0,8.0,-999,-99.99,,,-99.99,,2013-02-03 08:32:00,
2013-02-03 03:42:00,20.0,-99.9,-100.00,SSE,150,6.0,8.0,-999,-99.99,,,-99.99,,2013-02-03 08:42:00,
2013-02-03 03:52:00,20.0,-99.9,-100.00,SSE,150,6.0,8.0,-999,-99.99,,,-99.99,,2013-02-03 08:52:00,
2013-02-03 04:00:00,20.0,-99.9,-100.00,SE,140,7.0,9.0,-999,-99.99,,,-99.99,,2013-02-03 09:00:00,
2013-02-03 04:22:00,20.0,-99.9,-100.00,SSE,150,6.0,9.0,-999,-99.99,,,-99.99,,2013-02-03 09:22:00,
2013-02-03 04:32:00,20.0,-99.9,-100.00,SE,140,7.0,9.0,-999,-99.99,,,-99.99,,2013-02-03 09:32:00,
2013-02-03 04:42:00,20.0,-99.9,-100.00,SE,140,7.0,9.0,-999,-99.99,,,-99.99,,2013-02-03 09:42:00,
2013-02-03 04:52:00,20.0,-99.9,-100.00,SE,140,7.0,9.0,-999,-99.99,,,-99.99,,2013-02-03 09:52:00,
2013-02-03 05:00:00,20.0,-99.9,-100.00,SE,130,9.0,10.0,-999,-99.99,,,-99.99,,2013-02-03 10:00:00,
2013-02-03 05:22:00,20.0,-99.9,-100.00,SE,130,9.0,10.0,-999,-99.99,,,-99.99,,2013-02-03 10:22:00,
2013-02-03 05:32:00,20.0,-99.9,-100.00,SE,130,9.0,10.0,-999,-99.99,,,-99.99,,2013-02-03 10:32:00,
2013-02-03 05:42:00,20.0,-99.9,-100.00,SE,130,9.0,10.0,-999,-99.99,,,-99.99,,2013-02-03 10:42:00,
2013-02-03 05:53:00,20.0,-99.9,-100.00,SE,130,9.0,10.0,-999,-99.99,,,-99.99,,2013-02-03 10:53:00,
2013-02-03 06:22:00,20.0,-99.9,-100.00,SSE,160,7.0,9.0,-999,-99.99,,,-99.99,,2013-02-03 11:22:00,
2013-02-03 06:32:00,20.0,-99.9,-100.00,SSE,160,7.0,9.0,-999,-99.99,,,-99.99,,2013-02-03 11:32:00,
2013-02-03 06:42:00,20.0,-99.9,-100.00,SSE,160,7.0,9.0,-999,-99.99,,,-99.99,,2013-02-03 11:42:00,
2013-02-03 06:52:00,20.0,-99.9,-100.00,SSE,160,7.0,9.0,-999,-99.99,,,-99.99,,2013-02-03 11:52:00,
2013-02-03 07:00:00,20.0,-99.9,-100.00,SSE,160,7.0,8.0,-999,-99.99,,,-99.99,,2013-02-03 12:00:00,
2013-02-03 07:03:00,20.0,-99.9,-100.00,SSE,160,6.0,10.0,-999,-99.99,,,-99.99,,2013-02-03 12:03:00,
2013-02-03 07:12:00,20.0,-99.9,-100.00,SSE,160,6.0,10.0,-999,-99.99,,,-99.99,,2013-02-03 12:12:00,
2013-02-03 07:22:00,20.0,-99.9,-100.00,SSE,160,7.0,8.0,-999,-99.99,,,-99.99,,2013-02-03 12:22:00,
2013-02-03 07:33:00,20.0,-99.9,-100.00,SSE,160,7.0,8.0,-999,-99.99,,,-99.99,,2013-02-03 12:33:00,
2013-02-03 07:42:00,20.0,-99.9,-100.00,SSE,160,7.0,8.0,-999,-99.99,,,-99.99,,2013-02-03 12:42:00,
2013-02-03 07:53:00,20.0,-99.9,-100.00,SSE,160,7.0,8.0,-999,-99.99,,,-99.99,,2013-02-03 12:53:00,
2013-02-03 08:00:00,20.0,-99.9,-100.00,SSE,150,6.0,8.0,-999,-99.99,,,-99.99,,2013-02-03 13:00:00,
2013-02-03 08:22:00,20.0,-99.9,-100.00,SSE,150,6.0,8.0,-999,-99.99,,,-99.99,,2013-02-03 13:22:00,
2013-02-03 08:32:00,20.0,-99.9,-100.00,SSE,150,6.0,8.0,-999,-99.99,,,-99.99,,2013-02-03 13:32:00,
2013-02-03 08:42:00,20.0,-99.9,-100.00,SSE,150,6.0,8.0,-999,-99.99,,,-99.99,,2013-02-03 13:42:00,
2013-02-03 08:53:00,20.0,-99.9,-100.00,SSE,150,6.0,8.0,-999,-99.99,,,-99.99,,2013-02-03 13:53:00,
2013-02-03 09:22:00,20.0,-99.9,-100.00,SW,220,8.0,10.0,-999,-99.99,,,-99.99,,2013-02-03 14:22:00,
2013-02-03 09:32:00,20.0,-99.9,-100.00,SW,220,8.0,10.0,-999,-99.99,,,-99.99,,2013-02-03 14:32:00,
2013-02-03 09:43:00,20.0,-99.9,-100.00,SW,220,8.0,10.0,-999,-99.99,,,-99.99,,2013-02-03 14:43:00,
2013-02-03 09:52:00,20.0,-99.9,-100.00,SW,220,8.0,10.0,-999,-99.99,,,-99.99,,2013-02-03 14:52:00,
2013-02-03 10:03:00,21.0,-99.9,-100.00,SW,220,13.0,16.0,-999,-99.99,,,-99.99,,2013-02-03 15:03:00,
2013-02-03 10:12:00,21.0,-99.9,-100.00,SW,220,13.0,16.0,-999,-99.99,,,-99.99,,2013-02-03 15:12:00,
2013-02-03 10:23:00,21.0,-99.9,-100.00,WSW,240,16.0,18.0,-999,-99.99,,,-99.99,,2013-02-03 15:23:00,
2013-02-03 10:33:00,21.0,-99.9,-100.00,WSW,240,16.0,18.0,-999,-99.99,,,-99.99,,2013-02-03 15:33:00,
2013-02-03 10:42:00,21.0,-99.9,-100.00,WSW,240,16.0,18.0,-999,-99.99,,,-99.99,,2013-02-03 15:42:00,
2013-02-03 10:52:00,21.0,-99.9,-100.00,SW,230,15.0,21.0,-999,-99.99,,,-99.99,,2013-02-03 15:52:00,
2013-02-03 11:00:00,22.0,-99.9,-100.00,SW,230,14.0,23.0,-999,-99.99,,,-99.99,,2013-02-03 16:00:00,
2013-02-03 11:03:00,21.0,-99.9,-100.00,SW,230,15.0,21.0,-999,-99.99,,,-99.99,,2013-02-03 16:03:00,
2013-02-03 11:12:00,21.0,-99.9,-100.00,SW,230,15.0,21.0,-999,-99.99,,,-99.99,,2013-02-03 16:12:00,
2013-02-03 11:22:00,22.0,-99.9,-100.00,SW,230,14.0,23.0,-999,-99.99,,,-99.99,,2013-02-03 16:22:00,
2013-02-03 11:33:00,22.0,-99.9,-100.00,SW,230,14.0,23.0,-999,-99.99,,,-99.99,,2013-02-03 16:33:00,
2013-02-03 11:42:00,22.0,-99.9,-100.00,SW,230,14.0,23.0,-999,-99.99,,,-99.99,,2013-02-03 16:42:00,
2013-02-03 11:52:00,22.0,-99.9,-100.00,SW,230,14.0,23.0,-999,-99.99,,,-99.99,,2013-02-03 16:52:00,
2013-02-03 12:22:00,22.0,-99.9,-100.00,WNW,300,10.0,13.0,-999,-99.99,,,-99.99,,2013-02-03 17:22:00,
2013-02-03 12:32:00,22.0,-99.9,-100.00,WNW,300,10.0,13.0,-999,-99.99,,,-99.99,,2013-02-03 17:32:00,
2013-02-03 12:42:00,22.0,-99.9,-100.00,WNW,300,10.0,13.0,-999,-99.99,,,-99.99,,2013-02-03 17:42:00,
2013-02-03 12:53:00,22.0,-99.9,-100.00,WNW,300,10.0,13.0,-999,-99.99,,,-99.99,,2013-02-03 17:53:00,
2013-02-03 13:03:00,21.0,-99.9,-100.00,WNW,300,31.0,-999.0,-999,-99.99,,,-99.99,,2013-02-03 18:03:00,
2013-02-03 13:12:00,21.0,-99.9,-100.00,WNW,300,31.0,-999.0,-999,-99.99,,,-99.99,,2013-02-03 18:12:00,
2013-02-03 13:23:00,20.0,-99.9,-100.00,WNW,300,24.0,29.0,-999,-99.99,,,-99.99,,2013-02-03 18:23:00,
2013-02-03 13:33:00,20.0,-99.9,-100.00,WNW,300,24.0,29.0,-999,-99.99,,,-99.99,,2013-02-03 18:33:00,
2013-02-03 13:42:00,20.0,-99.9,-100.00,WNW,300,24.0,29.0,-999,-99.99,,,-99.99,,2013-02-03 18:42:00,
2013-02-03 13:52:00,20.0,-99.9,-100.00,WNW,300,22.0,26.0,-999,-99.99,,,-99.99,,2013-02-03 18:52:00,
2013-02-03 14:03:00,20.0,-99.9,-100.00,WNW,300,22.0,26.0,-999,-99.99,,,-99.99,,2013-02-03 19:03:00,
2013-02-03 14:11:00,20.0,-99.9,-100.00,WNW,300,22.0,26.0,-999,-99.99,,,-99.99,,2013-02-03 19:11:00,
2013-02-03 14:22:00,20.0,-99.9,-100.00,NW,310,18.0,23.0,-999,-99.99,,,-99.99,,2013-02-03 19:22:00,
2013-02-03 14:33:00,20.0,-99.9,-100.00,NW,310,18.0,23.0,-999,-99.99,,,-99.99,,2013-02-03 19:33:00,
2013-02-03 14:42:00,20.0,-99.9,-100.00,NW,310,18.0,23.0,-999,-99.99,,,-99.99,,2013-02-03 19:42:00,
2013-02-03 14:52:00,20.0,-99.9,-100.00,NW,310,18.0,23.0,-999,-99.99,,,-99.99,,2013-02-03 19:52:00,
2013-02-03 15:02:00,20.0,-99.9,-100.00,WNW,300,20.0,25.0,-999,-99.99,,,-99.99,,2013-02-03 20:02:00,
2013-02-03 15:12:00,20.0,-99.9,-100.00,WNW,300,20.0,25.0,-999,-99.99,,,-99.99,,2013-02-03 20:12:00,
2013-02-03 15:22:00,20.0,-99.9,-100.00,West,270,22.0,26.0,-999,-99.99,,,-99.99,,2013-02-03 20:22:00,
2013-02-03 15:33:00,20.0,-99.9,-100.00,West,270,22.0,26.0,-999,-99.99,,,-99.99,,2013-02-03 20:33:00,
2013-02-03 15:42:00,20.0,-99.9,-100.00,West,270,22.0,26.0,-999,-99.99,,,-99.99,,2013-02-03 20:42:00,
2013-02-03 15:52:00,20.0,-99.9,-100.00,West,270,22.0,26.0,-999,-99.99,,,-99.99,,2013-02-03 20:52:00,
2013-02-03 16:00:00,19.0,-99.9,-100.00,West,270,24.0,26.0,-999,-99.99,,,-99.99,,2013-02-03 21:00:00,
2013-02-03 16:04:00,20.0,-99.9,-100.00,West,260,24.0,-999.0,-999,-99.99,,,-99.99,,2013-02-03 21:04:00,
2013-02-03 16:11:00,20.0,-99.9,-100.00,West,260,24.0,-999.0,-999,-99.99,,,-99.99,,2013-02-03 21:11:00,
2013-02-03 16:22:00,19.0,-99.9,-100.00,West,270,24.0,26.0,-999,-99.99,,,-99.99,,2013-02-03 21:22:00,
2013-02-03 16:33:00,19.0,-99.9,-100.00,West,270,24.0,26.0,-999,-99.99,,,-99.99,,2013-02-03 21:33:00,
2013-02-03 16:43:00,19.0,-99.9,-100.00,West,270,24.0,26.0,-999,-99.99,,,-99.99,,2013-02-03 21:43:00,
2013-02-03 16:52:00,19.0,-99.9,-100.00,West,270,24.0,26.0,-999,-99.99,,,-99.99,,2013-02-03 21:52:00,
2013-02-03 17:00:00,20.0,-99.9,-100.00,West,270,25.0,30.0,-999,-99.99,,,-99.99,,2013-02-03 22:00:00,
2013-02-03 17:22:00,20.0,-99.9,-100.00,West,270,25.0,30.0,-999,-99.99,,,-99.99,,2013-02-03 22:22:00,
2013-02-03 17:32:00,20.0,-99.9,-100.00,West,270,25.0,30.0,-999,-99.99,,,-99.99,,2013-02-03 22:32:00,
2013-02-03 17:42:00,20.0,-99.9,-100.00,West,270,25.0,30.0,-999,-99.99,,,-99.99,,2013-02-03 22:42:00,
2013-02-03 17:52:00,20.0,-99.9,-100.00,West,270,25.0,30.0,-999,-99.99,,,-99.99,,2013-02-03 22:52:00,
2013-02-03 18:00:00,21.0,-99.9,-100.00,West,270,25.0,31.0,-999,-99.99,,,-99.99,,2013-02-03 23:00:00,
2013-02-03 18:22:00,21.0,-99.9,-100.00,West,270,25.0,31.0,-999,-99.99,,,-99.99,,2013-02-03 23:22:00,
2013-02-03 18:33:00,21.0,-99.9,-100.00,West,270,25.0,31.0,-999,-99.99,,,-99.99,,2013-02-03 23:33:00,
2013-02-03 18:42:00,21.0,-99.9,-100.00,West,270,25.0,31.0,-999,-99.99,,,-99.99,,2013-02-03 23:42:00,
2013-02-03 18:52:00,21.0,-99.9,-100.00,West,270,25.0,31.0,-999,-99.99,,,-99.99,,2013-02-03 23:52:00,
2013-02-03 19:22:00,19.0,-99.9,-100.00,WSW,240,18.0,22.0,-999,-99.99,,,-99.99,,2013-02-04 00:22:00,
2013-02-03 19:32:00,19.0,-99.9,-100.00,WSW,240,18.0,22.0,-999,-99.99,,,-99.99,,2013-02-04 00:32:00,
2013-02-03 19:42:00,19.0,-99.9,-100.00,WSW,240,18.0,22.0,-999,-99.99,,,-99.99,,2013-02-04 00:42:00,
2013-02-03 19:52:00,19.0,-99.9,-100.00,WSW,240,18.0,22.0,-999,-99.99,,,-99.99,,2013-02-04 00:52:00,
2013-02-03 20:00:00,19.0,-99.9,-100.00,WSW,240,22.0,28.0,-999,-99.99,,,-99.99,,2013-02-04 01:00:00,
2013-02-03 20:01:00,19.0,-99.9,-100.00,WSW,240,20.0,24.0,-999,-99.99,,,-99.99,,2013-02-04 01:01:00,
2013-02-03 20:11:00,19.0,-99.9,-100.00,WSW,240,20.0,24.0,-999,-99.99,,,-99.99,,2013-02-04 01:11:00,
2013-02-03 20:22:00,19.0,-99.9,-100.00,WSW,240,22.0,28.0,-999,-99.99,,,-99.99,,2013-02-04 01:22:00,
2013-02-03 20:32:00,19.0,-99.9,-100.00,WSW,240,22.0,28.0,-999,-99.99,,,-99.99,,2013-02-04 01:32:00,
2013-02-03 20:42:00,19.0,-99.9,-100.00,WSW,240,22.0,28.0,-999,-99.99,,,-99.99,,2013-02-04 01:42:00,
2013-02-03 20:52:00,19.0,-99.9,-100.00,WSW,240,22.0,28.0,-999,-99.99,,,-99.99,,2013-02-04 01:52:00,
2013-02-03 21:00:00,19.0,-99.9,-100.00,WSW,240,18.0,25.0,-999,-99.99,,,-99.99,,2013-02-04 02:00:00,
2013-02-03 21:22:00,19.0,-99.9,-100.00,WSW,240,18.0,25.0,-999,-99.99,,,-99.99,,2013-02-04 02:22:00,
2013-02-03 21:32:00,19.0,-99.9,-100.00,WSW,240,18.0,25.0,-999,-99.99,,,-99.99,,2013-02-04 02:32:00,
2013-02-03 21:42:00,19.0,-99.9,-100.00,WSW,240,18.0,25.0,-999,-99.99,,,-99.99,,2013-02-04 02:42:00,
2013-02-03 21:52:00,19.0,-99.9,-100.00,WSW,240,18.0,25.0,-999,-99.99,,,-99.99,,2013-02-04 02:52:00,
2013-02-03 22:22:00,20.0,-99.9,-100.00,WSW,240,23.0,26.0,-999,-99.99,,,-99.99,,2013-02-04 03:22:00,
2013-02-03 22:32:00,20.0,-99.9,-100.00,WSW,240,23.0,26.0,-999,-99.99,,,-99.99,,2013-02-04 03:32:00,
2013-02-03 22:42:00,20.0,-99.9,-100.00,WSW,240,22.0,41.0,-999,-99.99,,,-99.99,,2013-02-04 03:42:00,
2013-02-03 22:52:00,20.0,-99.9,-100.00,WSW,240,22.0,41.0,-999,-99.99,,,-99.99,,2013-02-04 03:52:00,
2013-02-03 23:02:00,22.0,-99.9,-100.00,NW,310,33.0,-999.0,-999,-99.99,,,-99.99,,2013-02-04 04:02:00,
2013-02-03 23:11:00,22.0,-99.9,-100.00,NW,310,33.0,-999.0,-999,-99.99,,,-99.99,,2013-02-04 04:11:00,
2013-02-03 23:22:00,22.0,-99.9,-100.00,NW,310,29.0,36.0,-999,-99.99,,,-99.99,,2013-02-04 04:22:00,
2013-02-03 23:32:00,22.0,-99.9,-100.00,NW,310,29.0,36.0,-999,-99.99,,,-99.99,,2013-02-04 04:32:00,
2013-02-03 23:42:00,22.0,-99.9,-100.00,NW,310,29.0,36.0,-999,-99.99,,,-99.99,,2013-02-04 04:42:00,
2013-02-03 23:52:00,22.0,-99.9,-100.00,NW,310,30.0,-999.0,-999,-99.99,,,-99.99,,2013-02-04 04:52:00,